sensor_id;sensor_type;location;lat;lon;timestamp;P1;durP1;ratioP1;P2;durP2;ratioP2
79373;SDS011;68844;53.128;17.958;2023-04-01T00:01:05;11.20;;;7.90;;
79373;SDS011;68844;53.128;17.958;2023-04-01T00:03:33;12.20;;;8.60;;
79373;SDS011;68844;53.128;17.958;2023-04-01T00:06:00;14.20;;;8.90;;
79373;SDS011;68844;53.128;17.958;2023-04-01T00:08:28;12.70;;;8.80;;
79373;SDS011;68844;53.128;17.958;2023-04-01T00:10:55;13.00;;;8.70;;
79373;SDS011;68844;53.128;17.958;2023-04-01T00:13:23;15.10;;;9.70;;
79373;SDS011;68844;53.128;17.958;2023-04-01T00:15:52;13.60;;;7.90;;
79373;SDS011;68844;53.128;17.958;2023-04-01T00:18:20;13.50;;;9.20;;
79373;SDS011;68844;53.128;17.958;2023-04-01T00:20:48;13.70;;;8.20;;
79373;SDS011;68844;53.128;17.958;2023-04-01T00:23:17;11.60;;;7.40;;
79373;SDS011;68844;53.128;17.958;2023-04-01T00:25:45;13.40;;;8.50;;
79373;SDS011;68844;53.128;17.958;2023-04-01T00:28:14;12.40;;;8.70;;
79373;SDS011;68844;53.128;17.958;2023-04-01T00:30:42;13.70;;;9.40;;
79373;SDS011;68844;53.128;17.958;2023-04-01T00:33:08;14.40;;;8.50;;
79373;SDS011;68844;53.128;17.958;2023-04-01T00:35:35;14.70;;;9.40;;
79373;SDS011;68844;53.128;17.958;2023-04-01T00:38:02;14.50;;;8.80;;
79373;SDS011;68844;53.128;17.958;2023-04-01T00:40:33;10.30;;;6.10;;
79373;SDS011;68844;53.128;17.958;2023-04-01T00:43:02;12.10;;;8.70;;
79373;SDS011;68844;53.128;17.958;2023-04-01T00:45:34;10.50;;;8.10;;
79373;SDS011;68844;53.128;17.958;2023-04-01T00:48:04;11.80;;;9.30;;
79373;SDS011;68844;53.128;17.958;2023-04-01T00:50:34;12.90;;;8.90;;
79373;SDS011;68844;53.128;17.958;2023-04-01T00:53:03;15.30;;;11.20;;
79373;SDS011;68844;53.128;17.958;2023-04-01T00:58:00;12.10;;;9.40;;
79373;SDS011;68844;53.128;17.958;2023-04-01T01:00:30;12.40;;;9.10;;
79373;SDS011;68844;53.128;17.958;2023-04-01T01:02:57;9.90;;;6.70;;
79373;SDS011;68844;53.128;17.958;2023-04-01T01:05:28;12.80;;;8.80;;
79373;SDS011;68844;53.128;17.958;2023-04-01T01:10:42;11.00;;;7.40;;
79373;SDS011;68844;53.128;17.958;2023-04-01T01:13:21;8.50;;;7.20;;
79373;SDS011;68844;53.128;17.958;2023-04-01T01:16:38;10.70;;;8.40;;
79373;SDS011;68844;53.128;17.958;2023-04-01T01:21:46;9.90;;;7.20;;
79373;SDS011;68844;53.128;17.958;2023-04-01T01:27:10;10.50;;;8.60;;
79373;SDS011;68844;53.128;17.958;2023-04-01T01:34:55;10.00;;;8.30;;
79373;SDS011;68844;53.128;17.958;2023-04-01T01:37:42;7.40;;;4.10;;
79373;SDS011;68844;53.128;17.958;2023-04-01T01:42:41;8.50;;;6.60;;
79373;SDS011;68844;53.128;17.958;2023-04-01T01:45:13;8.50;;;7.00;;
79373;SDS011;68844;53.128;17.958;2023-04-01T01:47:44;11.30;;;8.50;;
79373;SDS011;68844;53.128;17.958;2023-04-01T01:50:12;4.80;;;3.20;;
79373;SDS011;68844;53.128;17.958;2023-04-01T01:52:40;11.80;;;8.10;;
79373;SDS011;68844;53.128;17.958;2023-04-01T01:55:23;9.60;;;7.70;;
79373;SDS011;68844;53.128;17.958;2023-04-01T01:57:56;11.30;;;8.80;;
79373;SDS011;68844;53.128;17.958;2023-04-01T02:00:27;10.80;;;8.30;;
79373;SDS011;68844;53.128;17.958;2023-04-01T02:02:54;11.40;;;8.60;;
79373;SDS011;68844;53.128;17.958;2023-04-01T02:05:24;4.90;;;3.70;;
79373;SDS011;68844;53.128;17.958;2023-04-01T02:08:06;8.20;;;6.20;;
79373;SDS011;68844;53.128;17.958;2023-04-01T02:10:37;9.60;;;8.00;;
79373;SDS011;68844;53.128;17.958;2023-04-01T02:13:31;9.00;;;7.80;;
79373;SDS011;68844;53.128;17.958;2023-04-01T02:16:05;9.40;;;7.50;;
79373;SDS011;68844;53.128;17.958;2023-04-01T02:18:39;7.00;;;5.80;;
79373;SDS011;68844;53.128;17.958;2023-04-01T02:21:09;10.00;;;7.90;;
79373;SDS011;68844;53.128;17.958;2023-04-01T02:23:38;9.10;;;7.10;;
79373;SDS011;68844;53.128;17.958;2023-04-01T02:26:06;7.70;;;6.10;;
79373;SDS011;68844;53.128;17.958;2023-04-01T02:28:35;3.90;;;3.30;;
79373;SDS011;68844;53.128;17.958;2023-04-01T02:31:05;7.40;;;6.20;;
79373;SDS011;68844;53.128;17.958;2023-04-01T02:33:34;6.90;;;5.60;;
79373;SDS011;68844;53.128;17.958;2023-04-01T02:36:01;4.10;;;2.40;;
79373;SDS011;68844;53.128;17.958;2023-04-01T02:38:27;3.90;;;3.10;;
79373;SDS011;68844;53.128;17.958;2023-04-01T02:40:59;6.10;;;5.50;;
79373;SDS011;68844;53.128;17.958;2023-04-01T02:43:27;5.70;;;4.60;;
79373;SDS011;68844;53.128;17.958;2023-04-01T02:45:53;4.70;;;3.50;;
79373;SDS011;68844;53.128;17.958;2023-04-01T02:48:20;5.50;;;4.60;;
79373;SDS011;68844;53.128;17.958;2023-04-01T02:50:48;4.20;;;3.00;;
79373;SDS011;68844;53.128;17.958;2023-04-01T02:53:14;2.10;;;1.40;;
79373;SDS011;68844;53.128;17.958;2023-04-01T02:55:42;5.10;;;4.60;;
79373;SDS011;68844;53.128;17.958;2023-04-01T02:58:08;3.30;;;2.60;;
79373;SDS011;68844;53.128;17.958;2023-04-01T03:00:35;3.60;;;1.50;;
79373;SDS011;68844;53.128;17.958;2023-04-01T03:03:03;4.50;;;4.00;;
79373;SDS011;68844;53.128;17.958;2023-04-01T03:05:30;2.80;;;2.20;;
79373;SDS011;68844;53.128;17.958;2023-04-01T03:07:57;4.30;;;3.60;;
79373;SDS011;68844;53.128;17.958;2023-04-01T03:10:23;5.80;;;4.20;;
79373;SDS011;68844;53.128;17.958;2023-04-01T03:12:50;7.00;;;5.20;;
79373;SDS011;68844;53.128;17.958;2023-04-01T03:15:17;4.90;;;3.50;;
79373;SDS011;68844;53.128;17.958;2023-04-01T03:17:43;5.60;;;4.70;;
79373;SDS011;68844;53.128;17.958;2023-04-01T03:20:11;5.90;;;4.50;;
79373;SDS011;68844;53.128;17.958;2023-04-01T03:22:37;3.60;;;2.30;;
79373;SDS011;68844;53.128;17.958;2023-04-01T03:25:05;5.20;;;3.50;;
79373;SDS011;68844;53.128;17.958;2023-04-01T03:27:34;3.60;;;2.20;;
79373;SDS011;68844;53.128;17.958;2023-04-01T03:30:04;3.70;;;3.00;;
79373;SDS011;68844;53.128;17.958;2023-04-01T03:32:34;6.00;;;4.60;;
79373;SDS011;68844;53.128;17.958;2023-04-01T03:35:01;6.40;;;4.70;;
79373;SDS011;68844;53.128;17.958;2023-04-01T03:37:28;7.10;;;4.60;;
79373;SDS011;68844;53.128;17.958;2023-04-01T03:39:54;4.50;;;3.00;;
79373;SDS011;68844;53.128;17.958;2023-04-01T03:42:21;4.40;;;3.00;;
79373;SDS011;68844;53.128;17.958;2023-04-01T03:44:48;5.80;;;4.60;;
79373;SDS011;68844;53.128;17.958;2023-04-01T03:47:15;3.40;;;2.60;;
79373;SDS011;68844;53.128;17.958;2023-04-01T03:49:41;6.70;;;4.50;;
79373;SDS011;68844;53.128;17.958;2023-04-01T03:52:09;4.20;;;3.20;;
79373;SDS011;68844;53.128;17.958;2023-04-01T03:57:03;6.10;;;3.50;;
79373;SDS011;68844;53.128;17.958;2023-04-01T03:59:30;6.40;;;4.10;;
79373;SDS011;68844;53.128;17.958;2023-04-01T04:01:57;2.60;;;1.30;;
79373;SDS011;68844;53.128;17.958;2023-04-01T04:04:23;4.80;;;3.50;;
79373;SDS011;68844;53.128;17.958;2023-04-01T04:06:51;5.40;;;3.20;;
79373;SDS011;68844;53.128;17.958;2023-04-01T04:09:18;4.60;;;3.50;;
79373;SDS011;68844;53.128;17.958;2023-04-01T04:11:45;6.50;;;3.50;;
79373;SDS011;68844;53.128;17.958;2023-04-01T04:14:12;6.70;;;4.60;;
79373;SDS011;68844;53.128;17.958;2023-04-01T04:16:38;3.80;;;2.10;;
79373;SDS011;68844;53.128;17.958;2023-04-01T04:19:05;2.80;;;1.50;;
79373;SDS011;68844;53.128;17.958;2023-04-01T04:21:32;4.80;;;2.90;;
79373;SDS011;68844;53.128;17.958;2023-04-01T04:23:59;8.30;;;4.50;;
79373;SDS011;68844;53.128;17.958;2023-04-01T04:26:27;5.60;;;3.60;;
79373;SDS011;68844;53.128;17.958;2023-04-01T04:28:58;7.20;;;4.80;;
79373;SDS011;68844;53.128;17.958;2023-04-01T04:31:25;7.10;;;4.40;;
79373;SDS011;68844;53.128;17.958;2023-04-01T04:33:53;7.30;;;5.20;;
79373;SDS011;68844;53.128;17.958;2023-04-01T04:36:21;3.70;;;2.40;;
79373;SDS011;68844;53.128;17.958;2023-04-01T04:38:49;6.30;;;4.20;;
79373;SDS011;68844;53.128;17.958;2023-04-01T04:41:16;7.80;;;5.60;;
79373;SDS011;68844;53.128;17.958;2023-04-01T04:43:50;4.80;;;2.90;;
79373;SDS011;68844;53.128;17.958;2023-04-01T04:46:20;7.40;;;3.70;;
79373;SDS011;68844;53.128;17.958;2023-04-01T04:48:47;9.30;;;6.20;;
79373;SDS011;68844;53.128;17.958;2023-04-01T04:51:15;5.40;;;2.80;;
79373;SDS011;68844;53.128;17.958;2023-04-01T04:53:44;9.70;;;6.30;;
79373;SDS011;68844;53.128;17.958;2023-04-01T04:56:12;5.10;;;3.20;;
79373;SDS011;68844;53.128;17.958;2023-04-01T04:58:44;5.30;;;3.20;;
79373;SDS011;68844;53.128;17.958;2023-04-01T05:01:15;9.00;;;6.20;;
79373;SDS011;68844;53.128;17.958;2023-04-01T05:03:43;7.80;;;5.70;;
79373;SDS011;68844;53.128;17.958;2023-04-01T05:06:12;8.20;;;4.60;;
79373;SDS011;68844;53.128;17.958;2023-04-01T05:08:41;4.40;;;3.00;;
79373;SDS011;68844;53.128;17.958;2023-04-01T05:11:10;10.50;;;7.00;;
79373;SDS011;68844;53.128;17.958;2023-04-01T05:13:41;6.50;;;4.50;;
79373;SDS011;68844;53.128;17.958;2023-04-01T05:16:09;11.50;;;7.10;;
79373;SDS011;68844;53.128;17.958;2023-04-01T05:18:37;10.40;;;7.10;;
79373;SDS011;68844;53.128;17.958;2023-04-01T05:21:04;10.50;;;7.40;;
79373;SDS011;68844;53.128;17.958;2023-04-01T05:23:32;9.70;;;5.40;;
79373;SDS011;68844;53.128;17.958;2023-04-01T05:26:03;8.80;;;5.40;;
79373;SDS011;68844;53.128;17.958;2023-04-01T05:28:40;8.20;;;4.50;;
79373;SDS011;68844;53.128;17.958;2023-04-01T05:31:07;11.50;;;7.90;;
79373;SDS011;68844;53.128;17.958;2023-04-01T05:33:37;9.50;;;6.30;;
79373;SDS011;68844;53.128;17.958;2023-04-01T05:36:05;8.10;;;4.70;;
79373;SDS011;68844;53.128;17.958;2023-04-01T05:41:00;12.40;;;9.50;;
79373;SDS011;68844;53.128;17.958;2023-04-01T05:43:28;7.50;;;3.60;;
79373;SDS011;68844;53.128;17.958;2023-04-01T05:45:57;10.30;;;6.70;;
79373;SDS011;68844;53.128;17.958;2023-04-01T05:48:34;10.60;;;6.60;;
79373;SDS011;68844;53.128;17.958;2023-04-01T05:51:02;10.00;;;7.00;;
79373;SDS011;68844;53.128;17.958;2023-04-01T05:53:29;7.70;;;3.80;;
79373;SDS011;68844;53.128;17.958;2023-04-01T05:55:56;11.50;;;7.30;;
79373;SDS011;68844;53.128;17.958;2023-04-01T05:58:23;11.90;;;7.40;;
79373;SDS011;68844;53.128;17.958;2023-04-01T06:00:50;13.60;;;8.30;;
79373;SDS011;68844;53.128;17.958;2023-04-01T06:03:16;12.60;;;7.40;;
79373;SDS011;68844;53.128;17.958;2023-04-01T06:05:43;8.30;;;5.70;;
79373;SDS011;68844;53.128;17.958;2023-04-01T06:08:14;11.20;;;7.80;;
79373;SDS011;68844;53.128;17.958;2023-04-01T06:10:53;11.30;;;8.80;;
79373;SDS011;68844;53.128;17.958;2023-04-01T06:18:35;9.40;;;6.60;;
79373;SDS011;68844;53.128;17.958;2023-04-01T06:21:29;9.20;;;7.30;;
79373;SDS011;68844;53.128;17.958;2023-04-01T06:27:11;5.30;;;4.00;;
79373;SDS011;68844;53.128;17.958;2023-04-01T06:30:02;5.70;;;3.50;;
79373;SDS011;68844;53.128;17.958;2023-04-01T06:35:43;8.50;;;5.70;;
79373;SDS011;68844;53.128;17.958;2023-04-01T06:45:06;7.90;;;6.00;;
79373;SDS011;68844;53.128;17.958;2023-04-01T06:47:58;5.30;;;4.20;;
79373;SDS011;68844;53.128;17.958;2023-04-01T06:57:00;8.20;;;5.40;;
79373;SDS011;68844;53.128;17.958;2023-04-01T06:59:37;5.30;;;4.00;;
79373;SDS011;68844;53.128;17.958;2023-04-01T07:04:40;5.80;;;4.40;;
79373;SDS011;68844;53.128;17.958;2023-04-01T07:09:57;6.10;;;5.10;;
79373;SDS011;68844;53.128;17.958;2023-04-01T07:15:22;5.60;;;3.90;;
79373;SDS011;68844;53.128;17.958;2023-04-01T07:17:54;3.90;;;3.00;;
79373;SDS011;68844;53.128;17.958;2023-04-01T07:20:24;4.80;;;3.60;;
79373;SDS011;68844;53.128;17.958;2023-04-01T07:22:56;5.70;;;4.20;;
79373;SDS011;68844;53.128;17.958;2023-04-01T07:26:00;6.80;;;4.10;;
79373;SDS011;68844;53.128;17.958;2023-04-01T07:29:09;5.00;;;4.50;;
79373;SDS011;68844;53.128;17.958;2023-04-01T07:34:39;7.30;;;5.00;;
79373;SDS011;68844;53.128;17.958;2023-04-01T07:37:42;5.00;;;3.70;;
79373;SDS011;68844;53.128;17.958;2023-04-01T07:43:25;3.90;;;3.10;;
79373;SDS011;68844;53.128;17.958;2023-04-01T07:46:45;7.10;;;5.30;;
79373;SDS011;68844;53.128;17.958;2023-04-01T07:52:36;7.20;;;6.00;;
79373;SDS011;68844;53.128;17.958;2023-04-01T07:55:30;6.60;;;5.50;;
79373;SDS011;68844;53.128;17.958;2023-04-01T08:10:04;6.00;;;4.40;;
79373;SDS011;68844;53.128;17.958;2023-04-01T08:12:48;5.00;;;3.40;;
79373;SDS011;68844;53.128;17.958;2023-04-01T08:21:21;4.30;;;2.60;;
79373;SDS011;68844;53.128;17.958;2023-04-01T08:23:51;9.90;;;5.70;;
79373;SDS011;68844;53.128;17.958;2023-04-01T08:26:26;3.90;;;3.00;;
79373;SDS011;68844;53.128;17.958;2023-04-01T08:29:00;5.20;;;4.30;;
79373;SDS011;68844;53.128;17.958;2023-04-01T08:31:37;4.50;;;4.00;;
79373;SDS011;68844;53.128;17.958;2023-04-01T08:34:14;2.90;;;1.80;;
79373;SDS011;68844;53.128;17.958;2023-04-01T08:36:51;4.20;;;3.20;;
79373;SDS011;68844;53.128;17.958;2023-04-01T08:39:28;4.90;;;3.40;;
79373;SDS011;68844;53.128;17.958;2023-04-01T08:53:58;3.10;;;2.00;;
79373;SDS011;68844;53.128;17.958;2023-04-01T08:59:35;3.20;;;2.50;;
79373;SDS011;68844;53.128;17.958;2023-04-01T09:17:17;2.20;;;1.50;;
79373;SDS011;68844;53.128;17.958;2023-04-01T09:38:22;1.00;;;0.50;;
79373;SDS011;68844;53.128;17.958;2023-04-01T09:50:14;1.50;;;0.80;;
79373;SDS011;68844;53.128;17.958;2023-04-01T09:53:02;1.40;;;0.90;;
79373;SDS011;68844;53.128;17.958;2023-04-01T10:04:07;1.70;;;0.80;;
79373;SDS011;68844;53.128;17.958;2023-04-01T10:07:42;1.80;;;0.90;;
79373;SDS011;68844;53.128;17.958;2023-04-01T10:24:35;2.60;;;1.40;;
79373;SDS011;68844;53.128;17.958;2023-04-01T10:30:19;1.00;;;0.80;;
79373;SDS011;68844;53.128;17.958;2023-04-01T10:47:56;2.50;;;1.10;;
79373;SDS011;68844;53.128;17.958;2023-04-01T11:32:50;2.10;;;1.30;;
79373;SDS011;68844;53.128;17.958;2023-04-01T11:38:34;1.90;;;1.10;;
79373;SDS011;68844;53.128;17.958;2023-04-01T11:44:57;2.20;;;1.30;;
79373;SDS011;68844;53.128;17.958;2023-04-01T11:59:27;2.90;;;1.90;;
79373;SDS011;68844;53.128;17.958;2023-04-01T12:02:11;2.00;;;1.00;;
79373;SDS011;68844;53.128;17.958;2023-04-01T12:07:55;2.00;;;1.00;;
79373;SDS011;68844;53.128;17.958;2023-04-01T12:15:58;2.70;;;2.10;;
79373;SDS011;68844;53.128;17.958;2023-04-01T12:18:36;2.30;;;1.60;;
79373;SDS011;68844;53.128;17.958;2023-04-01T12:21:38;1.30;;;0.90;;
79373;SDS011;68844;53.128;17.958;2023-04-01T12:24:33;3.90;;;1.60;;
79373;SDS011;68844;53.128;17.958;2023-04-01T12:32:52;2.50;;;1.60;;
79373;SDS011;68844;53.128;17.958;2023-04-01T12:48:26;1.10;;;0.40;;
79373;SDS011;68844;53.128;17.958;2023-04-01T12:51:17;1.90;;;1.20;;
79373;SDS011;68844;53.128;17.958;2023-04-01T12:57:15;1.30;;;0.90;;
79373;SDS011;68844;53.128;17.958;2023-04-01T13:00:12;1.10;;;0.40;;
79373;SDS011;68844;53.128;17.958;2023-04-01T13:08:43;0.90;;;0.30;;
79373;SDS011;68844;53.128;17.958;2023-04-01T13:11:22;1.40;;;1.00;;
79373;SDS011;68844;53.128;17.958;2023-04-01T13:14:07;1.60;;;0.80;;
79373;SDS011;68844;53.128;17.958;2023-04-01T13:19:49;1.50;;;1.20;;
79373;SDS011;68844;53.128;17.958;2023-04-01T13:31:42;2.10;;;1.10;;
79373;SDS011;68844;53.128;17.958;2023-04-01T13:34:05;2.30;;;1.60;;
79373;SDS011;68844;53.128;17.958;2023-04-01T13:36:54;2.20;;;1.20;;
79373;SDS011;68844;53.128;17.958;2023-04-01T13:44:51;2.30;;;1.70;;
79373;SDS011;68844;53.128;17.958;2023-04-01T13:47:47;1.80;;;0.90;;
79373;SDS011;68844;53.128;17.958;2023-04-01T13:56:48;1.20;;;0.70;;
79373;SDS011;68844;53.128;17.958;2023-04-01T14:05:17;1.20;;;0.50;;
79373;SDS011;68844;53.128;17.958;2023-04-01T14:13:44;3.60;;;1.40;;
79373;SDS011;68844;53.128;17.958;2023-04-01T14:27:37;1.70;;;0.90;;
79373;SDS011;68844;53.128;17.958;2023-04-01T14:35:30;3.10;;;1.80;;
79373;SDS011;68844;53.128;17.958;2023-04-01T14:38:11;2.30;;;1.20;;
79373;SDS011;68844;53.128;17.958;2023-04-01T14:49:01;2.90;;;1.30;;
79373;SDS011;68844;53.128;17.958;2023-04-01T14:51:41;1.50;;;1.00;;
79373;SDS011;68844;53.128;17.958;2023-04-01T14:56:39;2.20;;;1.50;;
79373;SDS011;68844;53.128;17.958;2023-04-01T15:02:00;1.40;;;0.80;;
79373;SDS011;68844;53.128;17.958;2023-04-01T15:04:53;1.40;;;1.00;;
79373;SDS011;68844;53.128;17.958;2023-04-01T15:07:48;1.40;;;0.80;;
79373;SDS011;68844;53.128;17.958;2023-04-01T15:10:31;1.80;;;1.00;;
79373;SDS011;68844;53.128;17.958;2023-04-01T15:13:13;2.70;;;1.60;;
79373;SDS011;68844;53.128;17.958;2023-04-01T15:21:36;1.70;;;1.00;;
79373;SDS011;68844;53.128;17.958;2023-04-01T15:27:21;1.80;;;0.60;;
79373;SDS011;68844;53.128;17.958;2023-04-01T15:33:06;1.90;;;1.10;;
79373;SDS011;68844;53.128;17.958;2023-04-01T15:44:36;1.40;;;0.50;;
79373;SDS011;68844;53.128;17.958;2023-04-01T15:50:05;1.50;;;1.00;;
79373;SDS011;68844;53.128;17.958;2023-04-01T16:14:22;2.00;;;0.90;;
79373;SDS011;68844;53.128;17.958;2023-04-01T16:17:17;2.70;;;1.70;;
79373;SDS011;68844;53.128;17.958;2023-04-01T16:22:49;3.40;;;1.10;;
79373;SDS011;68844;53.128;17.958;2023-04-01T16:25:41;3.90;;;1.90;;
79373;SDS011;68844;53.128;17.958;2023-04-01T16:31:06;1.20;;;0.80;;
79373;SDS011;68844;53.128;17.958;2023-04-01T16:36:10;3.10;;;0.80;;
79373;SDS011;68844;53.128;17.958;2023-04-01T16:41:24;2.70;;;1.00;;
79373;SDS011;68844;53.128;17.958;2023-04-01T16:44:13;1.60;;;1.10;;
79373;SDS011;68844;53.128;17.958;2023-04-01T16:46:48;0.80;;;0.50;;
79373;SDS011;68844;53.128;17.958;2023-04-01T16:49:29;1.40;;;0.50;;
79373;SDS011;68844;53.128;17.958;2023-04-01T16:54:55;1.50;;;0.90;;
79373;SDS011;68844;53.128;17.958;2023-04-01T17:00:29;2.40;;;0.90;;
79373;SDS011;68844;53.128;17.958;2023-04-01T17:05:41;2.00;;;0.50;;
79373;SDS011;68844;53.128;17.958;2023-04-01T17:11:12;1.10;;;0.60;;
79373;SDS011;68844;53.128;17.958;2023-04-01T17:25:01;1.30;;;0.90;;
79373;SDS011;68844;53.128;17.958;2023-04-01T17:27:36;0.80;;;0.50;;
79373;SDS011;68844;53.128;17.958;2023-04-01T17:30:23;0.90;;;0.60;;
79373;SDS011;68844;53.128;17.958;2023-04-01T17:38:46;0.60;;;0.30;;
79373;SDS011;68844;53.128;17.958;2023-04-01T17:41:31;0.50;;;0.30;;
79373;SDS011;68844;53.128;17.958;2023-04-01T17:47:07;1.30;;;0.60;;
79373;SDS011;68844;53.128;17.958;2023-04-01T17:49:52;1.50;;;0.70;;
79373;SDS011;68844;53.128;17.958;2023-04-01T18:06:01;2.40;;;0.90;;
79373;SDS011;68844;53.128;17.958;2023-04-01T18:08:41;1.40;;;0.90;;
79373;SDS011;68844;53.128;17.958;2023-04-01T18:11:39;1.00;;;0.50;;
79373;SDS011;68844;53.128;17.958;2023-04-01T18:14:23;1.80;;;0.90;;
79373;SDS011;68844;53.128;17.958;2023-04-01T18:22:41;1.30;;;0.60;;
79373;SDS011;68844;53.128;17.958;2023-04-01T18:25:13;1.20;;;0.60;;
79373;SDS011;68844;53.128;17.958;2023-04-01T18:31:12;1.30;;;0.60;;
79373;SDS011;68844;53.128;17.958;2023-04-01T18:39:30;2.30;;;1.60;;
79373;SDS011;68844;53.128;17.958;2023-04-01T18:47:34;3.00;;;1.80;;
79373;SDS011;68844;53.128;17.958;2023-04-01T18:50:13;2.20;;;1.20;;
79373;SDS011;68844;53.128;17.958;2023-04-01T18:52:47;2.00;;;1.70;;
79373;SDS011;68844;53.128;17.958;2023-04-01T18:55:22;3.10;;;1.80;;
79373;SDS011;68844;53.128;17.958;2023-04-01T19:06:54;2.10;;;1.00;;
79373;SDS011;68844;53.128;17.958;2023-04-01T19:09:25;2.10;;;1.50;;
79373;SDS011;68844;53.128;17.958;2023-04-01T19:23:17;2.80;;;1.90;;
79373;SDS011;68844;53.128;17.958;2023-04-01T19:36:48;3.30;;;1.90;;
79373;SDS011;68844;53.128;17.958;2023-04-01T19:51:09;3.40;;;2.10;;
79373;SDS011;68844;53.128;17.958;2023-04-01T19:56:30;3.90;;;3.10;;
79373;SDS011;68844;53.128;17.958;2023-04-01T19:59:11;2.30;;;1.40;;
79373;SDS011;68844;53.128;17.958;2023-04-01T20:01:48;4.40;;;2.00;;
79373;SDS011;68844;53.128;17.958;2023-04-01T20:04:26;2.50;;;1.60;;
79373;SDS011;68844;53.128;17.958;2023-04-01T20:07:05;3.10;;;1.70;;
79373;SDS011;68844;53.128;17.958;2023-04-01T20:15:33;3.30;;;2.20;;
79373;SDS011;68844;53.128;17.958;2023-04-01T20:18:08;4.20;;;2.20;;
79373;SDS011;68844;53.128;17.958;2023-04-01T20:20:41;3.50;;;2.30;;
79373;SDS011;68844;53.128;17.958;2023-04-01T20:23:32;2.60;;;1.90;;
79373;SDS011;68844;53.128;17.958;2023-04-01T20:26:08;3.00;;;2.20;;
79373;SDS011;68844;53.128;17.958;2023-04-01T20:28:44;2.10;;;0.90;;
79373;SDS011;68844;53.128;17.958;2023-04-01T20:31:18;4.00;;;1.60;;
79373;SDS011;68844;53.128;17.958;2023-04-01T20:39:40;2.90;;;1.70;;
79373;SDS011;68844;53.128;17.958;2023-04-01T20:42:47;1.80;;;0.90;;
79373;SDS011;68844;53.128;17.958;2023-04-01T20:45:40;2.00;;;1.30;;
79373;SDS011;68844;53.128;17.958;2023-04-01T20:51:45;4.20;;;2.10;;
79373;SDS011;68844;53.128;17.958;2023-04-01T20:56:44;2.60;;;1.80;;
79373;SDS011;68844;53.128;17.958;2023-04-01T21:11:09;2.80;;;1.90;;
79373;SDS011;68844;53.128;17.958;2023-04-01T21:19:46;3.30;;;1.60;;
79373;SDS011;68844;53.128;17.958;2023-04-01T21:25:27;1.70;;;0.90;;
79373;SDS011;68844;53.128;17.958;2023-04-01T21:28:04;0.70;;;0.50;;
79373;SDS011;68844;53.128;17.958;2023-04-01T21:30:52;1.90;;;1.10;;
79373;SDS011;68844;53.128;17.958;2023-04-01T21:33:33;1.50;;;0.90;;
79373;SDS011;68844;53.128;17.958;2023-04-01T21:36:33;1.80;;;0.90;;
79373;SDS011;68844;53.128;17.958;2023-04-01T21:42:22;1.80;;;1.30;;
79373;SDS011;68844;53.128;17.958;2023-04-01T21:44:40;2.20;;;1.50;;
79373;SDS011;68844;53.128;17.958;2023-04-01T21:50:06;2.90;;;1.50;;
79373;SDS011;68844;53.128;17.958;2023-04-01T22:04:54;3.10;;;1.90;;
79373;SDS011;68844;53.128;17.958;2023-04-01T22:07:11;1.50;;;0.80;;
79373;SDS011;68844;53.128;17.958;2023-04-01T22:09:42;4.50;;;1.60;;
79373;SDS011;68844;53.128;17.958;2023-04-01T22:12:33;2.10;;;1.20;;
79373;SDS011;68844;53.128;17.958;2023-04-01T22:15:22;1.80;;;1.20;;
79373;SDS011;68844;53.128;17.958;2023-04-01T22:18:13;2.50;;;1.50;;
79373;SDS011;68844;53.128;17.958;2023-04-01T22:23:33;1.80;;;1.50;;
79373;SDS011;68844;53.128;17.958;2023-04-01T22:29:00;1.90;;;1.20;;
79373;SDS011;68844;53.128;17.958;2023-04-01T22:31:43;3.60;;;2.00;;
79373;SDS011;68844;53.128;17.958;2023-04-01T22:34:24;1.50;;;0.80;;
79373;SDS011;68844;53.128;17.958;2023-04-01T22:37:03;3.20;;;1.40;;
79373;SDS011;68844;53.128;17.958;2023-04-01T22:39:45;1.80;;;1.50;;
79373;SDS011;68844;53.128;17.958;2023-04-01T22:43:17;3.70;;;1.70;;
79373;SDS011;68844;53.128;17.958;2023-04-01T22:48:11;1.90;;;1.10;;
79373;SDS011;68844;53.128;17.958;2023-04-01T22:51:15;3.00;;;1.10;;
79373;SDS011;68844;53.128;17.958;2023-04-01T23:02:04;1.90;;;1.00;;
79373;SDS011;68844;53.128;17.958;2023-04-01T23:04:39;2.10;;;1.40;;
79373;SDS011;68844;53.128;17.958;2023-04-01T23:07:21;3.40;;;2.30;;
79373;SDS011;68844;53.128;17.958;2023-04-01T23:09:56;1.30;;;0.80;;
79373;SDS011;68844;53.128;17.958;2023-04-01T23:12:26;3.10;;;2.20;;
79373;SDS011;68844;53.128;17.958;2023-04-01T23:14:55;2.70;;;1.20;;
79373;SDS011;68844;53.128;17.958;2023-04-01T23:22:43;2.20;;;1.40;;
79373;SDS011;68844;53.128;17.958;2023-04-01T23:25:24;2.70;;;1.40;;
79373;SDS011;68844;53.128;17.958;2023-04-01T23:33:19;3.30;;;1.10;;
79373;SDS011;68844;53.128;17.958;2023-04-01T23:35:55;1.10;;;0.70;;
79373;SDS011;68844;53.128;17.958;2023-04-01T23:38:32;1.40;;;0.70;;
79373;SDS011;68844;53.128;17.958;2023-04-01T23:41:01;0.70;;;0.50;;
79373;SDS011;68844;53.128;17.958;2023-04-01T23:43:35;1.90;;;0.90;;
79373;SDS011;68844;53.128;17.958;2023-04-01T23:46:05;1.20;;;0.70;;
79373;SDS011;68844;53.128;17.958;2023-04-01T23:48:40;1.70;;;1.00;;
79373;SDS011;68844;53.128;17.958;2023-04-01T23:51:26;2.10;;;1.20;;
79373;SDS011;68844;53.128;17.958;2023-04-01T23:54:09;1.90;;;0.90;;
79373;SDS011;68844;53.128;17.958;2023-04-01T23:56:51;2.00;;;1.00;;
79373;SDS011;68844;53.128;17.958;2023-04-01T23:59:28;1.00;;;0.50;;
